Time;durP1;ratioP1;P1;durP2;ratioP2;P2;SDS_P1;SDS_P2;PMS_P1;PMS_P2;Temp;Humidity;BMP_temperature;BMP_pressure;BME280_temperature;BME280_humidity;BME280_pressure;Samples;Min_cycle;Max_cycle;Signal;HPM_P1;HPM_P2
2022/09/10 00:01:28;;;;;;;0.10;0.10;;;;;;;;;;6223786;22;20102;-84
2022/09/10 00:03:55;;;;;;;0.20;0.20;;;;;;;;;;6223861;22;20016;-84
2022/09/10 00:06:24;;;;;;;0.20;0.20;;;;;;;;;;6223624;22;20019;-84
2022/09/10 00:08:51;;;;;;;0.10;0.10;;;;;;;;;;6223407;22;20026;-84
2022/09/10 00:11:19;;;;;;;0.10;0.10;;;;;;;;;;6223799;22;20065;-84
2022/09/10 00:13:45;;;;;;;0.20;0.20;;;;;;;;;;6223774;22;20019;-84
2022/09/10 00:16:13;;;;;;;0.10;0.10;;;;;;;;;;6223700;22;20401;-84
2022/09/10 00:18:39;;;;;;;0.10;0.10;;;;;;;;;;6223686;22;20016;-84
2022/09/10 00:21:09;;;;;;;0.15;0.15;;;;;;;;;;6223361;22;20103;-84
2022/09/10 00:23:35;;;;;;;0.10;0.10;;;;;;;;;;6223811;22;20016;-84
2022/09/10 00:26:08;;;;;;;0.20;0.20;;;;;;;;;;6223862;22;20027;-84
2022/09/10 00:28:34;;;;;;;0.10;0.10;;;;;;;;;;6223709;22;20020;-84
2022/09/10 00:31:02;;;;;;;0.10;0.10;;;;;;;;;;6223049;22;20089;-84
2022/09/10 00:33:28;;;;;;;0.10;0.10;;;;;;;;;;6223908;22;20392;-84
2022/09/10 00:35:56;;;;;;;0.10;0.10;;;;;;;;;;6223697;22;20015;-84
2022/09/10 00:38:23;;;;;;;0.10;0.10;;;;;;;;;;6223927;22;20012;-84
2022/09/10 00:40:49;;;;;;;0.10;0.10;;;;;;;;;;6223108;22;20062;-84
2022/09/10 00:43:19;;;;;;;0.13;0.13;;;;;;;;;;6224191;22;20015;-84
2022/09/10 00:45:54;;;;;;;0.20;0.20;;;;;;;;;;6249049;22;20015;-85
2022/09/10 00:48:26;;;;;;;0.20;0.20;;;;;;;;;;6249022;22;20012;-84
2022/09/10 00:50:52;;;;;;;0.10;0.10;;;;;;;;;;6223034;22;20100;-84
2022/09/10 00:53:20;;;;;;;0.10;0.10;;;;;;;;;;6223693;22;20080;-84
2022/09/10 00:55:51;;;;;;;0.10;0.10;;;;;;;;;;6223742;22;20019;-84
2022/09/10 00:58:18;;;;;;;0.10;0.10;;;;;;;;;;6223680;22;20034;-84
2022/09/10 01:00:45;;;;;;;0.20;0.20;;;;;;;;;;6223169;22;20018;-84
2022/09/10 01:03:12;;;;;;;0.10;0.10;;;;;;;;;;6248955;22;20069;-84
2022/09/10 01:05:41;;;;;;;0.10;0.10;;;;;;;;;;6224252;22;20361;-84
2022/09/10 01:08:11;;;;;;;0.10;0.10;;;;;;;;;;6225882;22;20023;-84
2022/09/10 01:10:42;;;;;;;0.10;0.10;;;;;;;;;;6225156;22;20018;-84
2022/09/10 01:13:27;;;;;;;0.10;0.10;;;;;;;;;;6225535;22;20053;-84
2022/09/10 01:15:56;;;;;;;0.10;0.10;;;;;;;;;;6225422;22;20074;-84
2022/09/10 01:18:31;;;;;;;0.10;0.10;;;;;;;;;;6250874;22;20012;-84
2022/09/10 01:21:00;;;;;;;0.05;0.05;;;;;;;;;;6224761;22;20460;-84
2022/09/10 01:23:40;;;;;;;0.10;0.10;;;;;;;;;;6225539;22;20090;-84
2022/09/10 01:26:41;;;;;;;0.10;0.10;;;;;;;;;;6225466;22;20012;-84
2022/09/10 01:29:15;;;;;;;0.00;0.00;;;;;;;;;;6224835;22;20016;-84
2022/09/10 01:31:48;;;;;;;0.10;0.10;;;;;;;;;;6225256;22;20016;-84
2022/09/10 01:34:28;;;;;;;0.00;0.00;;;;;;;;;;6225505;22;20012;-84
2022/09/10 01:36:58;;;;;;;0.10;0.10;;;;;;;;;;6225398;22;20015;-84
2022/09/10 01:39:25;;;;;;;0.10;0.10;;;;;;;;;;6224911;22;20019;-84
2022/09/10 01:41:53;;;;;;;0.13;0.13;;;;;;;;;;6225099;22;20094;-85
2022/09/10 01:44:38;;;;;;;0.10;0.10;;;;;;;;;;6225142;22;20015;-84
2022/09/10 01:47:13;;;;;;;0.20;0.20;;;;;;;;;;6250554;22;20354;-84
2022/09/10 01:49:46;;;;;;;0.17;0.17;;;;;;;;;;6224761;22;20015;-84
2022/09/10 01:52:24;;;;;;;0.10;0.10;;;;;;;;;;6224989;22;20015;-84
2022/09/10 01:55:10;;;;;;;0.10;0.10;;;;;;;;;;6225020;22;20015;-84
2022/09/10 01:57:36;;;;;;;0.10;0.10;;;;;;;;;;6250387;22;20094;-84
2022/09/10 02:00:17;;;;;;;0.20;0.20;;;;;;;;;;6224598;22;20027;-84
2022/09/10 02:02:59;;;;;;;0.10;0.10;;;;;;;;;;6225443;22;20429;-84
2022/09/10 02:05:27;;;;;;;0.10;0.10;;;;;;;;;;6224990;22;20021;-84
2022/09/10 02:07:57;;;;;;;0.20;0.20;;;;;;;;;;6250381;22;20016;-84
2022/09/10 02:10:23;;;;;;;0.10;0.10;;;;;;;;;;6224387;22;20019;-84
2022/09/10 02:12:49;;;;;;;0.10;0.10;;;;;;;;;;6224743;22;20504;-84
2022/09/10 02:15:15;;;;;;;0.10;0.10;;;;;;;;;;6224932;22;20015;-84
2022/09/10 02:17:42;;;;;;;0.10;0.10;;;;;;;;;;6250110;22;20015;-84
2022/09/10 02:20:10;;;;;;;0.00;0.00;;;;;;;;;;6224258;22;20016;-84
2022/09/10 02:22:36;;;;;;;0.10;0.10;;;;;;;;;;6224923;22;20090;-84
2022/09/10 02:25:03;;;;;;;0.10;0.10;;;;;;;;;;6224710;22;20051;-84
2022/09/10 02:27:29;;;;;;;0.10;0.10;;;;;;;;;;6224550;22;20027;-84
2022/09/10 02:29:58;;;;;;;0.10;0.10;;;;;;;;;;6224234;22;20046;-84
2022/09/10 02:32:24;;;;;;;0.10;0.10;;;;;;;;;;6224725;22;20530;-84
2022/09/10 02:34:50;;;;;;;0.10;0.10;;;;;;;;;;6224712;22;20044;-84
2022/09/10 02:37:17;;;;;;;0.10;0.10;;;;;;;;;;6224785;22;20391;-84
2022/09/10 02:39:44;;;;;;;0.10;0.10;;;;;;;;;;6224215;22;20012;-84
2022/09/10 02:42:11;;;;;;;0.10;0.10;;;;;;;;;;6224692;22;20019;-83
2022/09/10 02:44:37;;;;;;;0.10;0.10;;;;;;;;;;6224590;22;20130;-84
2022/09/10 02:47:04;;;;;;;0.17;0.17;;;;;;;;;;6224642;22;20461;-84
2022/09/10 02:49:32;;;;;;;0.00;0.00;;;;;;;;;;6223988;22;20090;-84
2022/09/10 02:51:58;;;;;;;0.10;0.10;;;;;;;;;;6224375;22;20024;-84
2022/09/10 02:54:25;;;;;;;0.15;0.15;;;;;;;;;;6224698;22;20086;-84
2022/09/10 02:56:51;;;;;;;0.10;0.10;;;;;;;;;;6224579;22;20349;-84
2022/09/10 02:59:17;;;;;;;0.10;0.10;;;;;;;;;;6224022;22;20047;-84
2022/09/10 03:01:43;;;;;;;0.10;0.10;;;;;;;;;;6224568;22;20445;-84
2022/09/10 03:04:09;;;;;;;0.10;0.10;;;;;;;;;;6224540;22;20020;-84
2022/09/10 03:06:35;;;;;;;0.10;0.10;;;;;;;;;;6224342;22;20086;-83
2022/09/10 03:09:02;;;;;;;0.10;0.10;;;;;;;;;;6224108;22;20024;-84
2022/09/10 03:11:28;;;;;;;0.08;0.08;;;;;;;;;;6224405;22;20073;-84
2022/09/10 03:13:55;;;;;;;0.10;0.10;;;;;;;;;;6224325;22;20010;-84
2022/09/10 03:16:22;;;;;;;0.20;0.20;;;;;;;;;;6224470;22;20016;-84
2022/09/10 03:18:50;;;;;;;0.10;0.10;;;;;;;;;;6249126;22;20015;-84
2022/09/10 03:21:19;;;;;;;0.10;0.10;;;;;;;;;;6224401;22;20038;-84
2022/09/10 03:23:45;;;;;;;0.10;0.10;;;;;;;;;;6224366;22;20019;-84
2022/09/10 03:26:13;;;;;;;0.10;0.10;;;;;;;;;;6224346;22;20051;-84
2022/09/10 03:28:39;;;;;;;0.05;0.05;;;;;;;;;;6223972;22;20342;-83
2022/09/10 03:31:05;;;;;;;0.10;0.10;;;;;;;;;;6223443;22;20015;-84
2022/09/10 03:33:32;;;;;;;0.10;0.10;;;;;;;;;;6224281;22;20095;-84
2022/09/10 03:35:58;;;;;;;0.20;0.20;;;;;;;;;;6224132;22;20201;-84
2022/09/10 03:38:24;;;;;;;0.20;0.20;;;;;;;;;;6224163;22;20034;-84
2022/09/10 03:40:51;;;;;;;0.10;0.10;;;;;;;;;;6223774;22;20110;-83
2022/09/10 03:43:18;;;;;;;0.10;0.10;;;;;;;;;;6249253;22;20094;-84
2022/09/10 03:45:47;;;;;;;0.20;0.20;;;;;;;;;;6249346;22;20015;-84
2022/09/10 03:48:13;;;;;;;0.10;0.10;;;;;;;;;;6224093;22;20016;-84
2022/09/10 03:50:39;;;;;;;0.00;0.00;;;;;;;;;;6223611;22;20004;-84
2022/09/10 03:53:05;;;;;;;0.10;0.10;;;;;;;;;;6224025;22;20077;-84
2022/09/10 03:55:31;;;;;;;0.10;0.10;;;;;;;;;;6249462;22;20099;-84
2022/09/10 03:57:57;;;;;;;0.05;0.05;;;;;;;;;;6224234;22;20047;-84
2022/09/10 04:00:23;;;;;;;0.10;0.10;;;;;;;;;;6223483;22;20016;-84
2022/09/10 04:02:49;;;;;;;0.20;0.20;;;;;;;;;;6223960;22;20015;-84
2022/09/10 04:05:16;;;;;;;0.10;0.10;;;;;;;;;;6223901;22;20467;-84
2022/09/10 04:07:42;;;;;;;0.10;0.10;;;;;;;;;;6249277;22;20051;-84
2022/09/10 04:10:08;;;;;;;0.10;0.10;;;;;;;;;;6223297;22;20476;-84
2022/09/10 04:12:36;;;;;;;0.20;0.20;;;;;;;;;;6223625;22;20024;-84
2022/09/10 04:15:03;;;;;;;0.10;0.10;;;;;;;;;;6223768;22;20061;-84
2022/09/10 04:17:29;;;;;;;0.10;0.10;;;;;;;;;;6223817;22;20098;-84
2022/09/10 04:19:55;;;;;;;0.10;0.10;;;;;;;;;;6223321;22;20012;-84
2022/09/10 04:22:21;;;;;;;0.20;0.20;;;;;;;;;;6248997;22;20018;-84
2022/09/10 04:24:47;;;;;;;0.10;0.10;;;;;;;;;;6248945;22;20019;-84
2022/09/10 04:27:14;;;;;;;0.10;0.10;;;;;;;;;;6224002;22;20016;-84
2022/09/10 04:29:41;;;;;;;0.10;0.10;;;;;;;;;;6223090;22;20070;-84
2022/09/10 04:32:08;;;;;;;0.10;0.10;;;;;;;;;;6223666;22;20098;-84
2022/09/10 04:34:34;;;;;;;0.10;0.10;;;;;;;;;;6223657;22;20061;-84
2022/09/10 04:37:00;;;;;;;0.03;0.03;;;;;;;;;;6223600;22;20016;-84
2022/09/10 04:39:26;;;;;;;0.10;0.10;;;;;;;;;;6223001;22;20445;-84
2022/09/10 04:41:52;;;;;;;0.10;0.10;;;;;;;;;;6225710;22;20019;-84
2022/09/10 04:44:18;;;;;;;0.10;0.10;;;;;;;;;;6225561;22;20368;-84
2022/09/10 04:46:46;;;;;;;0.10;0.10;;;;;;;;;;6225581;22;20448;-84
2022/09/10 04:49:12;;;;;;;0.10;0.10;;;;;;;;;;6224969;22;20019;-84
2022/09/10 04:51:38;;;;;;;0.03;0.03;;;;;;;;;;6225515;22;20031;-84
2022/09/10 04:54:04;;;;;;;0.10;0.10;;;;;;;;;;6225565;22;20146;-84
2022/09/10 04:56:30;;;;;;;0.10;0.10;;;;;;;;;;6225613;22;20051;-84
2022/09/10 04:58:56;;;;;;;0.10;0.10;;;;;;;;;;6224887;22;20142;-84
2022/09/10 05:01:22;;;;;;;0.10;0.10;;;;;;;;;;6225600;22;20015;-84
2022/09/10 05:03:48;;;;;;;0.10;0.10;;;;;;;;;;6250705;22;20025;-84
2022/09/10 05:06:14;;;;;;;0.10;0.10;;;;;;;;;;6225399;22;20090;-84
2022/09/10 05:08:40;;;;;;;0.03;0.03;;;;;;;;;;6225486;22;20047;-84
2022/09/10 05:11:06;;;;;;;0.10;0.10;;;;;;;;;;6250177;22;20016;-84
2022/09/10 05:13:32;;;;;;;0.10;0.10;;;;;;;;;;6225433;22;20012;-84
2022/09/10 05:15:59;;;;;;;0.10;0.10;;;;;;;;;;6225334;22;20016;-84
2022/09/10 05:18:25;;;;;;;0.00;0.00;;;;;;;;;;6225399;22;20409;-84
2022/09/10 05:20:51;;;;;;;0.10;0.10;;;;;;;;;;6225040;22;20091;-84
2022/09/10 05:23:18;;;;;;;0.10;0.10;;;;;;;;;;6225235;22;20015;-84
2022/09/10 05:25:44;;;;;;;0.10;0.10;;;;;;;;;;6225440;22;20067;-84
2022/09/10 05:28:10;;;;;;;0.00;0.00;;;;;;;;;;6225233;22;20078;-84
2022/09/10 05:30:37;;;;;;;0.10;0.10;;;;;;;;;;6224737;22;20021;-84
2022/09/10 05:33:03;;;;;;;0.10;0.10;;;;;;;;;;6225109;22;20015;-84
2022/09/10 05:35:29;;;;;;;0.10;0.10;;;;;;;;;;6225255;22;20019;-84
2022/09/10 05:37:56;;;;;;;0.10;0.10;;;;;;;;;;6225281;22;20015;-85
2022/09/10 05:40:22;;;;;;;0.10;0.10;;;;;;;;;;6224527;22;20341;-84
2022/09/10 05:42:48;;;;;;;0.10;0.10;;;;;;;;;;6225029;22;20031;-84
2022/09/10 05:45:14;;;;;;;0.10;0.10;;;;;;;;;;6225110;22;20022;-84
2022/09/10 05:47:42;;;;;;;0.10;0.10;;;;;;;;;;6225209;22;20019;-84
2022/09/10 05:50:10;;;;;;;0.08;0.08;;;;;;;;;;6224459;22;20060;-84
2022/09/10 05:52:36;;;;;;;0.10;0.10;;;;;;;;;;6224738;22;20452;-84
2022/09/10 05:55:02;;;;;;;0.10;0.10;;;;;;;;;;6225069;22;20102;-84
2022/09/10 05:57:29;;;;;;;0.10;0.10;;;;;;;;;;6224992;22;20495;-84
2022/09/10 05:59:56;;;;;;;0.10;0.10;;;;;;;;;;6224212;22;20016;-84
2022/09/10 06:02:22;;;;;;;0.05;0.05;;;;;;;;;;6224002;22;20016;-84
2022/09/10 06:04:48;;;;;;;0.10;0.10;;;;;;;;;;6248195;22;20031;-84
2022/09/10 06:07:14;;;;;;;0.10;0.10;;;;;;;;;;6224073;22;20024;-84
2022/09/10 06:09:40;;;;;;;0.08;0.08;;;;;;;;;;6223384;22;20022;-84
2022/09/10 06:12:06;;;;;;;0.10;0.10;;;;;;;;;;6224042;22;20449;-84
2022/09/10 06:14:32;;;;;;;0.00;0.00;;;;;;;;;;6223865;22;20012;-84
2022/09/10 06:16:58;;;;;;;0.00;0.00;;;;;;;;;;6249343;22;20094;-84
2022/09/10 06:19:24;;;;;;;0.10;0.10;;;;;;;;;;6223264;22;20441;-84
2022/09/10 06:21:51;;;;;;;0.10;0.10;;;;;;;;;;6248882;22;20026;-84
2022/09/10 06:24:22;;;;;;;0.10;0.10;;;;;;;;;;6223884;22;20023;-84
2022/09/10 06:26:48;;;;;;;0.03;0.03;;;;;;;;;;6223982;22;20507;-84
2022/09/10 06:29:15;;;;;;;0.10;0.10;;;;;;;;;;6223080;22;20015;-85
2022/09/10 06:31:41;;;;;;;0.10;0.10;;;;;;;;;;6223608;22;20011;-85
2022/09/10 06:34:07;;;;;;;0.10;0.10;;;;;;;;;;6223819;22;20012;-85
2022/09/10 06:36:33;;;;;;;0.10;0.10;;;;;;;;;;6223911;22;20057;-84
2022/09/10 06:39:00;;;;;;;0.10;0.10;;;;;;;;;;6223263;22;20016;-84
2022/09/10 06:41:29;;;;;;;0.10;0.10;;;;;;;;;;6223655;22;20030;-84
2022/09/10 06:43:56;;;;;;;0.10;0.10;;;;;;;;;;6223777;22;20038;-84
2022/09/10 06:46:22;;;;;;;0.10;0.10;;;;;;;;;;6223696;22;20015;-84
2022/09/10 06:48:48;;;;;;;0.10;0.10;;;;;;;;;;6222771;22;20023;-84
2022/09/10 06:51:15;;;;;;;0.10;0.10;;;;;;;;;;6223405;22;20099;-84
2022/09/10 06:53:42;;;;;;;0.10;0.10;;;;;;;;;;6223205;22;20474;-84
2022/09/10 06:56:11;;;;;;;0.10;0.10;;;;;;;;;;6223644;22;20022;-84
2022/09/10 06:58:38;;;;;;;0.15;0.15;;;;;;;;;;6223569;22;20718;-84
2022/09/10 07:01:07;;;;;;;0.22;0.22;;;;;;;;;;6223199;22;20012;-84
2022/09/10 07:03:33;;;;;;;0.10;0.10;;;;;;;;;;6223100;22;20103;-84
2022/09/10 07:06:03;;;;;;;0.10;0.10;;;;;;;;;;6223392;22;20039;-84
2022/09/10 07:08:30;;;;;;;0.10;0.10;;;;;;;;;;6248551;22;20016;-84
2022/09/10 07:10:59;;;;;;;0.10;0.10;;;;;;;;;;6223153;22;20438;-84
2022/09/10 07:13:26;;;;;;;0.20;0.20;;;;;;;;;;6223122;22;20357;-84
2022/09/10 07:15:52;;;;;;;0.10;0.10;;;;;;;;;;6248656;22;20407;-84
2022/09/10 07:18:18;;;;;;;0.10;0.10;;;;;;;;;;6223352;22;20015;-84
2022/09/10 07:20:45;;;;;;;0.00;0.00;;;;;;;;;;6222698;22;20161;-83
2022/09/10 07:23:15;;;;;;;0.10;0.10;;;;;;;;;;6223223;22;20047;-84
2022/09/10 07:25:42;;;;;;;0.10;0.10;;;;;;;;;;6248541;22;20023;-84
2022/09/10 07:28:12;;;;;;;0.10;0.10;;;;;;;;;;6223218;22;20015;-84
2022/09/10 07:30:38;;;;;;;0.10;0.10;;;;;;;;;;6222725;22;20098;-84
2022/09/10 07:33:04;;;;;;;0.10;0.10;;;;;;;;;;6223151;22;20066;-84
2022/09/10 07:35:33;;;;;;;0.10;0.10;;;;;;;;;;6248396;22;20022;-84
2022/09/10 07:37:59;;;;;;;0.10;0.10;;;;;;;;;;6223260;22;20073;-84
2022/09/10 07:40:26;;;;;;;0.10;0.10;;;;;;;;;;6222729;22;20015;-84
2022/09/10 07:42:54;;;;;;;0.10;0.10;;;;;;;;;;6248468;22;20450;-84
2022/09/10 07:45:20;;;;;;;0.10;0.10;;;;;;;;;;6248185;22;20015;-84
2022/09/10 07:47:49;;;;;;;0.10;0.10;;;;;;;;;;6223337;22;20097;-84
2022/09/10 07:50:17;;;;;;;0.10;0.10;;;;;;;;;;6247980;22;20019;-84
2022/09/10 07:52:44;;;;;;;0.10;0.10;;;;;;;;;;6223064;22;20047;-84
2022/09/10 07:55:10;;;;;;;0.10;0.10;;;;;;;;;;6223149;22;20445;-84
2022/09/10 07:57:37;;;;;;;0.10;0.10;;;;;;;;;;6222942;22;20020;-84
2022/09/10 08:00:17;;;;;;;0.08;0.08;;;;;;;;;;6222705;22;20549;-85
2022/09/10 08:02:43;;;;;;;0.10;0.10;;;;;;;;;;6248365;22;20015;-85
2022/09/10 08:05:10;;;;;;;0.10;0.10;;;;;;;;;;6247913;22;20099;-84
2022/09/10 08:07:40;;;;;;;0.05;0.05;;;;;;;;;;6223298;22;20026;-84
2022/09/10 08:10:08;;;;;;;0.10;0.10;;;;;;;;;;6222483;22;20020;-85
2022/09/10 08:12:35;;;;;;;0.10;0.10;;;;;;;;;;6222911;22;20016;-85
2022/09/10 08:15:01;;;;;;;0.10;0.10;;;;;;;;;;6223109;22;20099;-85
2022/09/10 08:17:30;;;;;;;0.10;0.10;;;;;;;;;;6223115;22;20015;-84
2022/09/10 08:19:56;;;;;;;0.10;0.10;;;;;;;;;;6222561;22;20015;-84
2022/09/10 08:22:23;;;;;;;0.10;0.10;;;;;;;;;;6223054;22;20099;-84
2022/09/10 08:24:49;;;;;;;0.10;0.10;;;;;;;;;;6223219;22;20055;-85
2022/09/10 08:27:15;;;;;;;0.10;0.10;;;;;;;;;;6223015;22;20020;-85
2022/09/10 08:29:41;;;;;;;0.10;0.10;;;;;;;;;;6247495;22;20070;-85
2022/09/10 08:32:08;;;;;;;0.10;0.10;;;;;;;;;;6222779;22;20095;-84
2022/09/10 08:34:34;;;;;;;0.10;0.10;;;;;;;;;;6222834;22;20353;-85
2022/09/10 08:37:02;;;;;;;0.00;0.00;;;;;;;;;;6222822;22;20011;-85
2022/09/10 08:39:29;;;;;;;0.20;0.20;;;;;;;;;;6222455;22;20016;-85
2022/09/10 08:41:59;;;;;;;0.10;0.10;;;;;;;;;;6223135;22;20042;-85
2022/09/10 08:44:26;;;;;;;0.10;0.10;;;;;;;;;;6222846;22;20016;-85
2022/09/10 08:47:19;;;;;;;0.05;0.05;;;;;;;;;;6223200;22;20020;-85
2022/09/10 08:49:53;;;;;;;0.10;0.10;;;;;;;;;;6247756;22;20015;-85
2022/09/10 08:52:23;;;;;;;0.10;0.10;;;;;;;;;;6223092;22;20023;-85
2022/09/10 08:54:59;;;;;;;0.10;0.10;;;;;;;;;;6223114;22;20476;-85
2022/09/10 08:57:29;;;;;;;0.10;0.10;;;;;;;;;;6248177;22;20047;-85
2022/09/10 08:59:56;;;;;;;0.00;0.00;;;;;;;;;;6222398;22;20047;-85
2022/09/10 09:02:25;;;;;;;0.10;0.10;;;;;;;;;;6222600;22;20016;-85
2022/09/10 09:04:54;;;;;;;0.20;0.20;;;;;;;;;;6248204;22;20038;-85
2022/09/10 09:07:21;;;;;;;0.17;0.17;;;;;;;;;;6222598;22;20532;-85
2022/09/10 09:09:50;;;;;;;0.03;0.03;;;;;;;;;;6247546;22;20026;-85
2022/09/10 09:12:21;;;;;;;0.20;0.20;;;;;;;;;;6222676;22;20142;-85
2022/09/10 09:18:21;;;;;;;0.10;0.10;;;;;;;;;;6248088;22;20353;-84
2022/09/10 09:20:54;;;;;;;0.10;0.10;;;;;;;;;;6222241;22;20103;-85
2022/09/10 09:23:25;;;;;;;0.10;0.10;;;;;;;;;;6222808;22;20350;-85
2022/09/10 09:26:10;;;;;;;0.10;0.10;;;;;;;;;;6222992;22;20023;-85
2022/09/10 09:28:37;;;;;;;0.10;0.10;;;;;;;;;;6224492;22;20349;-85
2022/09/10 09:31:06;;;;;;;0.00;0.00;;;;;;;;;;6223999;22;20348;-85
2022/09/10 09:33:33;;;;;;;0.10;0.10;;;;;;;;;;6224533;22;20437;-85
2022/09/10 09:36:01;;;;;;;0.10;0.10;;;;;;;;;;6224495;22;20015;-85
2022/09/10 09:38:37;;;;;;;0.00;0.00;;;;;;;;;;6224545;22;20011;-85
2022/09/10 09:41:22;;;;;;;0.10;0.10;;;;;;;;;;6223978;22;20011;-85
2022/09/10 09:44:05;;;;;;;0.00;0.00;;;;;;;;;;6224196;22;20030;-85
2022/09/10 09:46:33;;;;;;;0.10;0.10;;;;;;;;;;6224434;22;20015;-86
2022/09/10 09:49:00;;;;;;;0.10;0.10;;;;;;;;;;6223895;22;20015;-85
2022/09/10 09:51:34;;;;;;;0.10;0.10;;;;;;;;;;6223874;22;20026;-86
2022/09/10 09:54:06;;;;;;;0.10;0.10;;;;;;;;;;6224538;22;20012;-87
2022/09/10 09:56:39;;;;;;;0.10;0.10;;;;;;;;;;6224861;22;20041;-87
2022/09/10 09:59:11;;;;;;;0.10;0.10;;;;;;;;;;6224105;22;20026;-87
2022/09/10 10:01:39;;;;;;;0.10;0.10;;;;;;;;;;6224418;22;20020;-88
2022/09/10 10:04:18;;;;;;;0.00;0.00;;;;;;;;;;6224569;22;20037;-87
2022/09/10 10:06:48;;;;;;;0.10;0.10;;;;;;;;;;6224283;22;20019;-87
2022/09/10 10:09:34;;;;;;;0.00;0.00;;;;;;;;;;6223593;22;20067;-86
2022/09/10 10:12:03;;;;;;;0.10;0.10;;;;;;;;;;6224599;22;20337;-87
2022/09/10 10:14:37;;;;;;;0.08;0.08;;;;;;;;;;6224166;22;20027;-87
2022/09/10 10:17:20;;;;;;;0.10;0.10;;;;;;;;;;6224038;22;20011;-87
2022/09/10 10:22:36;;;;;;;0.10;0.10;;;;;;;;;;6249078;22;20024;-86
2022/09/10 10:25:03;;;;;;;0.03;0.03;;;;;;;;;;6224621;22;20094;-91
2022/09/10 10:27:37;;;;;;;0.10;0.10;;;;;;;;;;6223766;22;20098;-91
2022/09/10 10:30:06;;;;;;;0.10;0.10;;;;;;;;;;6224075;22;20103;-91
2022/09/10 10:32:33;;;;;;;0.10;0.10;;;;;;;;;;6225395;22;20019;-91
2022/09/10 10:35:06;;;;;;;0.00;0.00;;;;;;;;;;6224880;22;20027;-90
2022/09/10 10:37:44;;;;;;;0.10;0.10;;;;;;;;;;6224667;22;20581;-90
2022/09/10 10:40:32;;;;;;;0.10;0.10;;;;;;;;;;6224674;22;20430;-91
2022/09/10 10:43:12;;;;;;;0.10;0.10;;;;;;;;;;6225529;22;20020;-90
2022/09/10 10:45:39;;;;;;;0.10;0.10;;;;;;;;;;6225253;22;20015;-91
2022/09/10 10:48:05;;;;;;;0.10;0.10;;;;;;;;;;6224847;22;20026;-90
2022/09/10 10:50:31;;;;;;;0.10;0.10;;;;;;;;;;6224101;22;20450;-91
2022/09/10 10:53:11;;;;;;;0.10;0.10;;;;;;;;;;6224969;22;20077;-90
2022/09/10 10:55:46;;;;;;;0.10;0.10;;;;;;;;;;6225639;22;20011;-92
2022/09/10 10:58:19;;;;;;;0.10;0.10;;;;;;;;;;6224011;22;20402;-90
2022/09/10 11:01:14;;;;;;;0.10;0.10;;;;;;;;;;6223814;22;20073;-90
2022/09/10 11:03:47;;;;;;;0.10;0.10;;;;;;;;;;6217952;22;20449;-91
2022/09/10 11:06:15;;;;;;;0.10;0.10;;;;;;;;;;6224478;22;20062;-92
2022/09/10 11:08:54;;;;;;;0.10;0.10;;;;;;;;;;6224373;22;20579;-90
2022/09/10 11:11:38;;;;;;;0.17;0.17;;;;;;;;;;6224846;22;20027;-90
2022/09/10 11:14:24;;;;;;;0.10;0.10;;;;;;;;;;6224511;22;20031;-90
2022/09/10 11:16:58;;;;;;;0.10;0.10;;;;;;;;;;6224833;22;20019;-89
2022/09/10 11:19:47;;;;;;;0.10;0.10;;;;;;;;;;6224247;22;20304;-89
2022/09/10 11:22:21;;;;;;;0.00;0.00;;;;;;;;;;6224085;22;20388;-89
2022/09/10 11:24:49;;;;;;;;;;;;;;;;;;6225165;22;20050;-88
2022/09/10 11:27:18;;;;;;;0.00;0.00;;;;;;;;;;6224437;22;19994;-89
2022/09/10 11:29:47;;;;;;;0.10;0.10;;;;;;;;;;6224017;22;20015;-91
2022/09/10 11:32:17;;;;;;;0.10;0.10;;;;;;;;;;6224396;22;20444;-90
2022/09/10 11:34:58;;;;;;;0.10;0.10;;;;;;;;;;6224658;22;20341;-90
2022/09/10 11:37:46;;;;;;;0.10;0.10;;;;;;;;;;6224719;22;20012;-91
2022/09/10 11:40:32;;;;;;;0.10;0.10;;;;;;;;;;6223398;22;20026;-90
2022/09/10 11:43:02;;;;;;;0.10;0.10;;;;;;;;;;6224264;22;20353;-90
2022/09/10 11:45:37;;;;;;;0.15;0.15;;;;;;;;;;6223873;22;20024;-91
2022/09/10 11:48:10;;;;;;;0.10;0.10;;;;;;;;;;6224491;22;20523;-91
2022/09/10 11:50:39;;;;;;;0.10;0.10;;;;;;;;;;6223884;22;20027;-92
2022/09/10 11:53:06;;;;;;;0.00;0.00;;;;;;;;;;6224218;22;20102;-92
2022/09/10 11:55:42;;;;;;;0.10;0.10;;;;;;;;;;6224795;22;20090;-94
2022/09/10 11:58:11;;;;;;;0.00;0.00;;;;;;;;;;6224694;22;20396;-95
2022/09/10 12:00:46;;;;;;;0.10;0.10;;;;;;;;;;6224160;22;20376;-92
2022/09/10 12:03:25;;;;;;;0.00;0.00;;;;;;;;;;6224747;22;20023;-93
2022/09/10 12:05:59;;;;;;;0.10;0.10;;;;;;;;;;6224263;22;20080;-92
2022/09/10 12:08:27;;;;;;;0.10;0.10;;;;;;;;;;6224129;22;20020;-93
2022/09/10 12:11:12;;;;;;;0.10;0.10;;;;;;;;;;6224374;22;20016;-92
2022/09/10 12:13:39;;;;;;;0.10;0.10;;;;;;;;;;6224112;22;20067;-92
2022/09/10 12:16:18;;;;;;;0.00;0.00;;;;;;;;;;6224268;22;20011;-94
2022/09/10 12:18:46;;;;;;;0.10;0.10;;;;;;;;;;6224343;22;20022;-93
2022/09/10 12:21:28;;;;;;;0.10;0.10;;;;;;;;;;6249404;22;20016;-94
2022/09/10 12:23:55;;;;;;;0.10;0.10;;;;;;;;;;6224121;22;20012;-96
2022/09/10 12:26:21;;;;;;;0.00;0.00;;;;;;;;;;6224346;22;20094;-94
2022/09/10 12:28:48;;;;;;;0.03;0.03;;;;;;;;;;6223755;22;20015;-94
2022/09/10 12:31:18;;;;;;;0.17;0.17;;;;;;;;;;6224405;22;20024;-93
2022/09/10 12:33:44;;;;;;;0.10;0.10;;;;;;;;;;6224034;22;20016;-93
2022/09/10 12:36:14;;;;;;;0.10;0.10;;;;;;;;;;6221772;22;20020;-94
2022/09/10 12:38:48;;;;;;;0.10;0.10;;;;;;;;;;6221826;22;20019;-93
2022/09/10 12:41:20;;;;;;;0.10;0.10;;;;;;;;;;6223717;22;20104;-93
2022/09/10 12:43:47;;;;;;;0.10;0.10;;;;;;;;;;6223666;22;20098;-90
2022/09/10 12:46:13;;;;;;;0.03;0.03;;;;;;;;;;6224171;22;20336;-93
2022/09/10 12:48:42;;;;;;;0.05;0.05;;;;;;;;;;6224109;22;20479;-93
2022/09/10 12:51:17;;;;;;;0.10;0.10;;;;;;;;;;6221623;22;20012;-93
2022/09/10 12:53:50;;;;;;;0.03;0.03;;;;;;;;;;6223068;22;20024;-93
2022/09/10 12:56:28;;;;;;;0.10;0.10;;;;;;;;;;6224838;22;20345;-92
2022/09/10 12:59:00;;;;;;;0.10;0.10;;;;;;;;;;6222230;22;20015;-92
2022/09/10 13:01:30;;;;;;;0.00;0.00;;;;;;;;;;6223371;22;20058;-94
2022/09/10 13:03:57;;;;;;;0.10;0.10;;;;;;;;;;6226070;22;20019;-94
2022/09/10 13:06:34;;;;;;;0.08;0.08;;;;;;;;;;6224777;22;20016;-91
2022/09/10 13:09:02;;;;;;;0.10;0.10;;;;;;;;;;6224975;22;20015;-91
2022/09/10 13:11:31;;;;;;;0.10;0.10;;;;;;;;;;6225339;22;20016;-95
2022/09/10 13:14:00;;;;;;;0.10;0.10;;;;;;;;;;6225338;22;20089;-94
2022/09/10 13:16:27;;;;;;;0.00;0.00;;;;;;;;;;6224560;22;20098;-94
2022/09/10 13:18:54;;;;;;;0.10;0.10;;;;;;;;;;6224159;22;20016;-94
2022/09/10 13:21:23;;;;;;;0.10;0.10;;;;;;;;;;6225876;22;20020;-94
2022/09/10 13:23:56;;;;;;;0.10;0.10;;;;;;;;;;6225126;22;20535;-91
2022/09/10 13:26:37;;;;;;;0.10;0.10;;;;;;;;;;6225563;22;20432;-90
2022/09/10 13:29:29;;;;;;;0.10;0.10;;;;;;;;;;6224968;22;20376;-93
2022/09/10 13:32:04;;;;;;;0.10;0.10;;;;;;;;;;6224111;22;20492;-94
2022/09/10 13:34:33;;;;;;;0.00;0.00;;;;;;;;;;6225561;22;20447;-95
2022/09/10 13:37:00;;;;;;;0.00;0.00;;;;;;;;;;6225413;22;20043;-93
2022/09/10 13:39:44;;;;;;;0.00;0.00;;;;;;;;;;6224935;22;20046;-94
2022/09/10 13:42:28;;;;;;;0.10;0.10;;;;;;;;;;6225779;22;20042;-94
2022/09/10 13:45:15;;;;;;;0.10;0.10;;;;;;;;;;6225491;22;20327;-94
2022/09/10 13:47:46;;;;;;;0.10;0.10;;;;;;;;;;6225841;22;20103;-92
2022/09/10 13:50:13;;;;;;;0.10;0.10;;;;;;;;;;6225014;22;20123;-95
2022/09/10 13:52:41;;;;;;;0.08;0.08;;;;;;;;;;6225324;22;20019;-93
2022/09/10 13:55:21;;;;;;;0.10;0.10;;;;;;;;;;6226101;22;20016;-94
2022/09/10 14:00:41;;;;;;;0.03;0.03;;;;;;;;;;6250684;22;20019;-93
2022/09/10 14:03:14;;;;;;;0.00;0.00;;;;;;;;;;6225798;22;20446;-94
2022/09/10 14:05:48;;;;;;;0.10;0.10;;;;;;;;;;6225780;22;20470;-93
2022/09/10 14:08:17;;;;;;;0.10;0.10;;;;;;;;;;6225674;22;20265;-93
2022/09/10 14:11:05;;;;;;;0.10;0.10;;;;;;;;;;6224633;22;20016;-94
2022/09/10 14:13:37;;;;;;;0.10;0.10;;;;;;;;;;6225909;22;20023;-94
2022/09/10 14:16:04;;;;;;;0.05;0.05;;;;;;;;;;6225284;22;20012;-93
2022/09/10 14:18:49;;;;;;;0.10;0.10;;;;;;;;;;6225624;22;20020;-94
2022/09/10 14:21:15;;;;;;;;;;;;;;;;;;6226076;22;20057;-93
2022/09/10 14:23:48;;;;;;;0.00;0.00;;;;;;;;;;6224962;22;19911;-94
2022/09/10 14:26:23;;;;;;;0.10;0.10;;;;;;;;;;6225400;22;20057;-94
2022/09/10 14:28:50;;;;;;;0.00;0.00;;;;;;;;;;6225003;22;20030;-94
2022/09/10 14:31:37;;;;;;;0.10;0.10;;;;;;;;;;6225397;22;20457;-95
2022/09/10 14:34:22;;;;;;;0.00;0.00;;;;;;;;;;6225014;22;20016;-94
2022/09/10 14:36:48;;;;;;;0.00;0.00;;;;;;;;;;6225736;22;20012;-94
2022/09/10 14:39:18;;;;;;;0.05;0.05;;;;;;;;;;6225058;22;20016;-93
2022/09/10 14:41:45;;;;;;;0.10;0.10;;;;;;;;;;6225860;22;20370;-94
2022/09/10 14:44:21;;;;;;;0.10;0.10;;;;;;;;;;6225129;22;20026;-94
2022/09/10 14:46:49;;;;;;;0.08;0.08;;;;;;;;;;6225519;22;20019;-95
2022/09/10 14:49:16;;;;;;;0.00;0.00;;;;;;;;;;6224756;22;20030;-94
2022/09/10 14:51:42;;;;;;;0.08;0.08;;;;;;;;;;6225074;22;20047;-94
2022/09/10 14:54:13;;;;;;;0.00;0.00;;;;;;;;;;6225339;22;20031;-94
2022/09/10 14:56:43;;;;;;;0.10;0.10;;;;;;;;;;6225429;22;20038;-93
2022/09/10 14:59:14;;;;;;;0.10;0.10;;;;;;;;;;6224838;22;20019;-94
2022/09/10 15:01:41;;;;;;;0.10;0.10;;;;;;;;;;6224837;22;20022;-92
2022/09/10 15:04:11;;;;;;;0.00;0.00;;;;;;;;;;6225138;22;20529;-93
2022/09/10 15:06:37;;;;;;;0.05;0.05;;;;;;;;;;6224764;22;20022;-93
2022/09/10 15:09:04;;;;;;;0.00;0.00;;;;;;;;;;6224591;22;20102;-93